Time;durP1;ratioP1;P1;durP2;ratioP2;P2;SDS_P1;SDS_P2;PMS_P1;PMS_P2;Temp;Humidity;BMP_temperature;BMP_pressure;BME280_temperature;BME280_humidity;BME280_pressure;Samples;Min_cycle;Max_cycle;Signal;HPM_P1;HPM_P2
2023/09/28 00:00:38;;;;;;;14.07;9.23;;;435.80;2355.20;;;;;;4770885;30;20123;-82
2023/09/28 00:03:09;;;;;;;11.90;8.63;;;435.80;2355.20;;;;;;4770253;29;20034;-82
2023/09/28 00:05:37;;;;;;;14.25;8.70;;;435.70;2355.20;;;;;;4770468;30;20050;-81
2023/09/28 00:08:03;;;;;;;16.48;8.75;;;435.70;2355.20;;;;;;4782600;30;20039;-84
2023/09/28 00:10:30;;;;;;;14.75;9.18;;;435.70;2355.20;;;;;;4805551;29;20038;-82
2023/09/28 00:12:56;;;;;;;13.25;8.90;;;435.70;2355.20;;;;;;4790662;29;20052;-83
2023/09/28 00:15:24;;;;;;;14.32;8.95;;;435.60;2355.20;;;;;;4797386;29;20046;-81
2023/09/28 00:17:54;;;;;;;16.15;8.88;;;435.60;2355.20;;;;;;4817630;29;20075;-83
2023/09/28 00:20:22;;;;;;;15.52;8.90;;;435.50;2355.20;;;;;;4825723;29;20034;-82
2023/09/28 00:22:53;;;;;;;15.35;9.13;;;435.60;2355.20;;;;;;4825615;29;20034;-83
2023/09/28 00:25:21;;;;;;;16.15;9.60;;;435.50;2355.20;;;;;;4827933;29;20481;-80
2023/09/28 00:27:51;;;;;;;14.50;9.07;;;435.50;2355.20;;;;;;4815096;29;20092;-81
2023/09/28 00:30:22;;;;;;;16.40;9.73;;;435.50;2355.20;;;;;;4812932;29;20042;-80
2023/09/28 00:32:49;;;;;;;13.50;8.82;;;435.50;2355.20;;;;;;4805660;29;20038;-81
2023/09/28 00:35:16;;;;;;;13.93;8.85;;;435.50;2355.20;;;;;;4813128;29;20549;-79
2023/09/28 00:37:42;;;;;;;16.30;9.35;;;435.50;2355.20;;;;;;4820589;29;20095;-79
2023/09/28 00:42:45;;;;;;;15.63;9.38;;;435.40;2355.20;;;;;;4809576;29;20037;-79
2023/09/28 00:45:10;;;;;;;15.90;9.55;;;435.40;2355.20;;;;;;4808251;29;20031;-80
2023/09/28 00:47:40;;;;;;;13.40;9.38;;;435.30;2355.20;;;;;;4816500;29;20083;-80
2023/09/28 00:50:17;;;;;;;12.88;9.13;;;435.30;2355.20;;;;;;4812759;29;20577;-83
2023/09/28 00:52:46;;;;;;;13.48;9.68;;;410.40;2355.20;;;;;;4806071;29;20099;-83
2023/09/28 00:55:15;;;;;;;17.08;9.95;;;435.20;2355.20;;;;;;4808592;29;20026;-81
2023/09/28 00:57:42;;;;;;;14.57;10.23;;;435.20;2355.20;;;;;;4810260;29;20434;-79
2023/09/28 01:00:25;;;;;;;14.00;9.88;;;435.20;2355.20;;;;;;4810800;29;20035;-79
2023/09/28 01:02:53;;;;;;;14.50;9.45;;;410.50;2355.20;;;;;;4805680;29;20524;-83
2023/09/28 01:05:27;;;;;;;17.00;10.13;;;410.40;2355.20;;;;;;4807320;29;20027;-85
2023/09/28 01:07:55;;;;;;;18.37;10.43;;;410.40;2355.20;;;;;;4818252;29;20026;-84
2023/09/28 01:10:23;;;;;;;18.38;11.55;;;410.30;2355.20;;;;;;4826826;29;20270;-80
2023/09/28 01:12:51;;;;;;;15.95;10.52;;;410.30;2355.20;;;;;;4826526;29;20034;-84
2023/09/28 01:15:17;;;;;;;17.58;10.20;;;410.30;2355.20;;;;;;4819537;29;20079;-82
2023/09/28 01:17:43;;;;;;;17.55;9.80;;;410.20;2355.20;;;;;;4809670;29;20035;-81
2023/09/28 01:20:30;;;;;;;18.38;9.70;;;410.20;2355.20;;;;;;4819936;29;20034;-83
2023/09/28 01:22:56;;;;;;;14.95;9.48;;;410.20;2355.20;;;;;;4825008;29;20480;-83
2023/09/28 01:25:40;;;;;;;15.68;10.45;;;410.20;2355.20;;;;;;4816814;29;20039;-83
2023/09/28 01:28:07;;;;;;;16.88;9.45;;;410.10;2355.20;;;;;;4799315;29;20039;-85
2023/09/28 01:30:34;;;;;;;16.10;9.90;;;410.10;2355.20;;;;;;4789033;29;20033;-86
2023/09/28 01:33:00;;;;;;;18.15;12.05;;;410.10;2355.20;;;;;;4801123;29;20031;-85
2023/09/28 01:35:27;;;;;;;16.35;10.00;;;410.00;2355.20;;;;;;4807018;29;20031;-85
2023/09/28 01:38:09;;;;;;;18.15;10.38;;;409.90;2124.80;;;;;;4805221;29;20089;-85
2023/09/28 01:40:35;;;;;;;17.73;10.30;;;409.90;2355.20;;;;;;4806019;29;20034;-85
2023/09/28 01:43:00;;;;;;;14.40;9.80;;;409.90;2099.20;;;;;;4816498;29;20049;-85
2023/09/28 01:45:26;;;;;;;15.68;10.18;;;409.90;2022.40;;;;;;4824790;29;20038;-81
2023/09/28 01:47:52;;;;;;;15.45;10.35;;;409.80;2252.80;;;;;;4823949;29;20038;-81
2023/09/28 01:50:18;;;;;;;18.77;10.43;;;409.80;2355.20;;;;;;4816673;29;20432;-84
2023/09/28 01:52:44;;;;;;;16.23;10.65;;;409.70;2355.20;;;;;;4806084;29;20046;-80
2023/09/28 01:55:10;;;;;;;16.98;10.80;;;409.70;2355.20;;;;;;4803788;29;20397;-80
2023/09/28 01:57:35;;;;;;;15.35;10.52;;;409.60;2355.20;;;;;;4801570;29;20050;-81
2023/09/28 02:00:08;;;;;;;15.20;10.52;;;409.60;2355.20;;;;;;4809118;29;20069;-81
2023/09/28 02:02:36;;;;;;;15.25;10.00;;;409.60;2355.20;;;;;;4808562;29;20035;-86
2023/09/28 02:05:03;;;;;;;15.20;10.60;;;409.60;2355.20;;;;;;4804389;29;20038;-87
2023/09/28 02:07:29;;;;;;;19.55;11.68;;;409.60;2048.00;;;;;;4806241;29;20105;-87
2023/09/28 02:09:54;;;;;;;15.50;10.93;;;409.70;2355.20;;;;;;4805647;29;20114;-84
2023/09/28 02:12:21;;;;;;;17.45;10.25;;;409.70;2201.60;;;;;;4822143;29;20493;-87
2023/09/28 02:14:47;;;;;;;16.77;10.35;;;409.70;2355.20;;;;;;4822855;29;20045;-84
2023/09/28 02:17:12;;;;;;;15.25;10.55;;;409.60;2278.40;;;;;;4809549;29;20038;-87
2023/09/28 02:19:39;;;;;;;17.85;10.90;;;384.90;2329.60;;;;;;4818398;29;20457;-82
2023/09/28 02:22:05;;;;;;;19.23;11.70;;;384.90;2329.60;;;;;;4822587;29;20499;-82
2023/09/28 02:24:31;;;;;;;16.52;11.23;;;384.80;2329.60;;;;;;4823314;29;20113;-82
2023/09/28 02:26:56;;;;;;;17.05;11.43;;;384.80;2329.60;;;;;;4810160;29;20114;-82
2023/09/28 02:29:22;;;;;;;17.10;11.10;;;384.70;2329.60;;;;;;4805542;29;20073;-82
2023/09/28 02:31:48;;;;;;;18.95;11.43;;;384.70;2329.60;;;;;;4805036;29;20057;-84
2023/09/28 02:34:14;;;;;;;17.83;10.80;;;384.70;2329.60;;;;;;4803530;29;20050;-84
2023/09/28 02:36:40;;;;;;;18.52;10.95;;;384.80;2329.60;;;;;;4804640;29;20031;-82
2023/09/28 02:39:09;;;;;;;17.08;11.13;;;384.70;2329.60;;;;;;4804699;29;20500;-83
2023/09/28 02:41:38;;;;;;;16.75;11.05;;;384.70;2329.60;;;;;;4806080;29;20031;-82
2023/09/28 02:44:04;;;;;;;16.38;10.65;;;384.70;2329.60;;;;;;4805634;29;20039;-85
2023/09/28 02:46:29;;;;;;;16.85;10.88;;;384.60;2329.60;;;;;;4804971;29;20031;-81
2023/09/28 02:48:55;;;;;;;18.77;10.95;;;384.60;2329.60;;;;;;4805932;29;20054;-85
2023/09/28 02:51:22;;;;;;;19.98;11.32;;;384.50;2201.60;;;;;;4814716;29;20542;-81
2023/09/28 02:53:48;;;;;;;17.70;11.05;;;384.50;2329.60;;;;;;4826585;29;20042;-86
2023/09/28 02:56:13;;;;;;;18.90;11.02;;;384.50;2329.60;;;;;;4815552;29;20386;-83
2023/09/28 02:58:40;;;;;;;17.30;11.25;;;384.50;2329.60;;;;;;4806875;29;20385;-80
2023/09/28 03:01:06;;;;;;;16.48;10.77;;;384.50;2329.60;;;;;;4808708;29;20029;-83
2023/09/28 03:03:31;;;;;;;17.23;10.82;;;384.50;2329.60;;;;;;4816123;29;20035;-82
2023/09/28 03:05:58;;;;;;;15.90;10.48;;;384.50;2329.60;;;;;;4808147;29;20038;-82
2023/09/28 03:08:24;;;;;;;15.20;10.77;;;384.50;2329.60;;;;;;4808503;29;20719;-83
2023/09/28 03:10:51;;;;;;;17.73;10.75;;;384.50;2329.60;;;;;;4807919;29;20155;-81
2023/09/28 03:13:18;;;;;;;20.08;11.70;;;384.50;2329.60;;;;;;4815470;29;20069;-82
2023/09/28 03:15:44;;;;;;;16.67;10.80;;;384.40;2329.60;;;;;;4815928;29;20030;-81
2023/09/28 03:18:13;;;;;;;15.95;11.07;;;384.40;2329.60;;;;;;4808438;29;20815;-83
2023/09/28 03:20:43;;;;;;;18.33;11.57;;;384.50;2329.60;;;;;;4808017;29;20034;-83
2023/09/28 03:23:09;;;;;;;18.73;11.55;;;384.30;2329.60;;;;;;4809498;29;20065;-82
2023/09/28 03:25:34;;;;;;;19.27;11.57;;;384.20;2329.60;;;;;;4818710;29;20031;-81
2023/09/28 03:28:01;;;;;;;17.77;11.45;;;384.30;2329.60;;;;;;4789631;29;20081;-80
2023/09/28 03:30:28;;;;;;;18.98;11.13;;;384.80;2329.60;;;;;;4789199;29;20156;-82
2023/09/28 03:32:56;;;;;;;19.60;11.27;;;384.30;2329.60;;;;;;4795738;29;20057;-82
2023/09/28 03:35:22;;;;;;;19.88;11.63;;;384.30;2329.60;;;;;;4813371;29;20034;-80
2023/09/28 03:37:53;;;;;;;19.38;11.70;;;384.20;2329.60;;;;;;4805772;29;20114;-82
2023/09/28 03:40:19;;;;;;;22.65;12.35;;;384.20;2329.60;;;;;;4807469;29;20034;-82
2023/09/28 03:42:49;;;;;;;19.45;12.05;;;384.10;2329.60;;;;;;4806732;29;20027;-83
2023/09/28 03:45:21;;;;;;;18.85;11.93;;;384.20;2329.60;;;;;;4808770;29;20474;-84
2023/09/28 03:47:51;;;;;;;20.02;12.10;;;384.20;2329.60;;;;;;4814612;29;20022;-82
2023/09/28 03:50:17;;;;;;;17.02;11.82;;;384.20;2329.60;;;;;;4824987;29;20042;-83
2023/09/28 03:52:46;;;;;;;18.38;11.57;;;384.30;2329.60;;;;;;4824272;29;20038;-81
2023/09/28 03:55:18;;;;;;;19.63;12.32;;;384.10;2329.60;;;;;;4817104;29;20037;-81
2023/09/28 03:57:44;;;;;;;18.17;11.73;;;384.10;2329.60;;;;;;4804452;29;20056;-82
2023/09/28 04:00:14;;;;;;;24.15;12.20;;;384.00;2329.60;;;;;;4807188;29;20031;-81
2023/09/28 04:02:41;;;;;;;21.08;12.98;;;384.10;2329.60;;;;;;4806218;29;20031;-84
2023/09/28 04:05:08;;;;;;;22.25;13.32;;;384.00;2329.60;;;;;;4796212;29;20517;-79
2023/09/28 04:07:34;;;;;;;18.50;12.48;;;384.00;2329.60;;;;;;4813329;29;20039;-80
2023/09/28 04:09:59;;;;;;;20.98;12.32;;;384.00;2329.60;;;;;;4809194;29;20085;-81
2023/09/28 04:12:27;;;;;;;21.35;12.63;;;384.00;2329.60;;;;;;4810714;29;20389;-81
2023/09/28 04:14:53;;;;;;;21.98;12.93;;;384.00;2329.60;;;;;;4814513;29;20511;-83
2023/09/28 04:17:19;;;;;;;21.13;12.65;;;384.10;2329.60;;;;;;4812192;29;20107;-80
2023/09/28 04:19:45;;;;;;;19.55;12.70;;;384.00;2329.60;;;;;;4805307;29;20049;-82
2023/09/28 04:22:10;;;;;;;22.63;12.73;;;384.00;2329.60;;;;;;4807061;29;20094;-83
2023/09/28 04:24:36;;;;;;;21.30;12.77;;;384.00;2329.60;;;;;;4805456;29;20038;-81
2023/09/28 04:27:02;;;;;;;18.15;11.88;;;359.30;2329.60;;;;;;4805566;29;20462;-85
2023/09/28 04:29:28;;;;;;;19.73;12.82;;;384.00;2329.60;;;;;;4820601;29;20137;-81
2023/09/28 04:31:54;;;;;;;20.35;12.85;;;384.00;2329.60;;;;;;4808183;29;20037;-81
2023/09/28 04:34:20;;;;;;;21.17;12.93;;;384.00;2329.60;;;;;;4806081;29;20122;-84
2023/09/28 04:36:46;;;;;;;23.73;13.93;;;359.30;2329.60;;;;;;4806107;29;20031;-81
2023/09/28 04:39:13;;;;;;;22.55;13.35;;;384.00;2329.60;;;;;;4813563;29;20123;-81
2023/09/28 04:41:40;;;;;;;22.85;13.70;;;384.00;2329.60;;;;;;4823110;29;20034;-84
2023/09/28 04:44:09;;;;;;;20.15;13.07;;;384.10;2329.60;;;;;;4823549;29;20046;-82
2023/09/28 04:46:34;;;;;;;23.08;13.65;;;384.10;2329.60;;;;;;4813063;29;20034;-80
2023/09/28 04:49:00;;;;;;;23.92;13.95;;;384.00;2329.60;;;;;;4806684;29;20050;-82
2023/09/28 04:51:26;;;;;;;21.23;12.95;;;384.10;2329.60;;;;;;4802743;29;20031;-83
2023/09/28 04:53:52;;;;;;;22.55;13.48;;;384.10;2329.60;;;;;;4806544;29;20107;-82
2023/09/28 04:56:18;;;;;;;20.48;12.57;;;384.10;2329.60;;;;;;4806485;29;20064;-82
2023/09/28 04:58:45;;;;;;;22.08;12.65;;;384.20;2329.60;;;;;;4806412;29;20053;-81
2023/09/28 05:01:15;;;;;;;21.70;12.18;;;384.20;2048.00;;;;;;4807320;29;20470;-83
2023/09/28 05:03:40;;;;;;;24.35;13.43;;;384.20;2329.60;;;;;;4804111;29;20096;-82
2023/09/28 05:06:06;;;;;;;18.48;12.02;;;384.20;2329.60;;;;;;4807868;29;20038;-84
2023/09/28 05:08:32;;;;;;;24.98;12.20;;;384.30;2329.60;;;;;;4809396;29;20686;-81
2023/09/28 05:10:58;;;;;;;20.85;12.32;;;384.30;2329.60;;;;;;4820924;29;20038;-83
2023/09/28 05:13:28;;;;;;;21.10;12.40;;;384.40;2329.60;;;;;;4813836;29;20061;-82
2023/09/28 05:15:54;;;;;;;17.67;11.75;;;384.50;2329.60;;;;;;4812259;29;20549;-82
2023/09/28 05:18:19;;;;;;;19.17;12.40;;;384.70;2329.60;;;;;;4818006;29;20120;-82
2023/09/28 05:20:45;;;;;;;18.17;12.20;;;384.70;2329.60;;;;;;4807281;29;20030;-80
2023/09/28 05:23:11;;;;;;;18.08;11.45;;;384.80;2329.60;;;;;;4808844;29;20482;-80
2023/09/28 05:25:37;;;;;;;18.63;12.85;;;384.90;2329.60;;;;;;4819868;29;20044;-81
2023/09/28 05:28:04;;;;;;;21.83;13.45;;;409.60;2355.20;;;;;;4806973;29;20045;-80
2023/09/28 05:30:30;;;;;;;19.13;13.32;;;409.60;2355.20;;;;;;4806393;29;20095;-81
2023/09/28 05:32:56;;;;;;;19.92;13.05;;;409.80;2355.20;;;;;;4802529;29;20035;-81
2023/09/28 05:35:25;;;;;;;20.75;13.18;;;409.90;2355.20;;;;;;4806923;29;20038;-83
2023/09/28 05:37:51;;;;;;;20.38;12.63;;;410.00;2355.20;;;;;;4806605;29;20037;-82
2023/09/28 05:40:17;;;;;;;20.10;12.40;;;410.20;2355.20;;;;;;4813349;29;20121;-80
2023/09/28 05:42:42;;;;;;;23.00;12.10;;;410.40;2355.20;;;;;;4810140;29;20114;-84
2023/09/28 05:45:13;;;;;;;20.42;10.93;;;435.30;2355.20;;;;;;4810074;29;20113;-82
2023/09/28 05:47:38;;;;;;;17.02;10.65;;;461.10;2380.80;;;;;;4800037;29;20043;-83
2023/09/28 05:50:05;;;;;;;17.52;10.93;;;;;;;;;;4791565;29;20051;-81
2023/09/28 05:52:31;;;;;;;16.58;10.27;;;;;;;;;;4802838;29;20050;-81
2023/09/28 05:54:57;;;;;;;16.33;10.05;;;665.90;2124.80;;;;;;4802641;29;20039;-83
2023/09/28 05:57:23;;;;;;;16.10;10.10;;;;;;;;;;4802076;29;20053;-81
2023/09/28 05:59:49;;;;;;;15.05;10.82;;;;;;;;;;4803061;29;20488;-81
2023/09/28 06:02:16;;;;;;;15.43;9.70;;;;;;;;;;4803692;29;20649;-84
2023/09/28 06:04:42;;;;;;;15.85;10.15;;;;;;;;;;4804162;29;20034;-80
2023/09/28 06:07:10;;;;;;;16.13;9.68;;;;;;;;;;4803709;29;20051;-83
2023/09/28 06:09:37;;;;;;;14.55;8.98;;;845.70;1382.40;;;;;;4804780;29;20038;-78
2023/09/28 06:12:03;;;;;;;14.65;9.43;;;;;;;;;;4813039;29;20043;-82
2023/09/28 06:14:29;;;;;;;16.25;9.98;;;;;;;;;;4796068;29;20096;-84
2023/09/28 06:16:56;;;;;;;12.77;9.52;;;;;;;;;;4794593;29;20035;-82
2023/09/28 06:19:22;;;;;;;13.48;9.98;;;;;;;;;;4805403;29;20553;-81
2023/09/28 06:21:48;;;;;;;16.13;9.77;;;922.10;1177.60;;;;;;4803922;29;20038;-80
2023/09/28 06:24:14;;;;;;;14.48;10.80;;;;;;;;;;4800160;29;20039;-80
2023/09/28 06:26:43;;;;;;;13.00;9.90;;;947.20;1100.80;;;;;;4803111;29;20039;-83
2023/09/28 06:29:09;;;;;;;17.92;11.65;;;947.50;1100.80;;;;;;4806600;29;20034;-81
2023/09/28 06:31:35;;;;;;;17.00;11.45;;;;;;;;;;4807521;29;20485;-83
2023/09/28 06:34:01;;;;;;;16.27;10.52;;;;;;;;;;4806500;29;20045;-82
2023/09/28 06:36:28;;;;;;;15.07;9.95;;;947.60;1075.20;;;;;;4805999;29;20034;-82
2023/09/28 06:38:55;;;;;;;17.42;10.68;;;;;;;;;;4801816;29;20047;-84
2023/09/28 06:41:21;;;;;;;13.30;9.70;;;;;;;;;;4806363;29;20022;-82
2023/09/28 06:43:50;;;;;;;13.95;10.48;;;;;;;;;;4804980;29;20038;-84
2023/09/28 06:46:17;;;;;;;16.83;9.68;;;999.20;1049.60;;;;;;4806483;29;20496;-82
2023/09/28 06:48:47;;;;;;;12.30;8.98;;;999.20;1024.00;;;;;;4803885;29;20054;-82
2023/09/28 06:51:12;;;;;;;12.43;8.73;;;1024.60;998.40;;;;;;4803601;29;20031;-83
2023/09/28 06:53:41;;;;;;;10.77;8.90;;;1049.70;998.40;;;;;;4805399;29;20175;-83
2023/09/28 06:56:07;;;;;;;14.63;8.68;;;1050.00;972.80;;;;;;4807782;29;20034;-86
2023/09/28 06:58:33;;;;;;;11.82;8.98;;;1050.20;972.80;;;;;;4805533;29;20035;-85
2023/09/28 07:00:59;;;;;;;11.15;8.32;;;1050.20;947.20;;;;;;4803860;29;20034;-87
2023/09/28 07:03:26;;;;;;;12.80;8.23;;;1049.90;947.20;;;;;;4806811;29;20058;-84
2023/09/28 07:05:55;;;;;;;12.15;8.85;;;1049.90;947.20;;;;;;4804146;29;20030;-83
2023/09/28 07:08:21;;;;;;;10.63;8.50;;;1049.60;972.80;;;;;;4803222;29;20513;-85
2023/09/28 07:10:46;;;;;;;12.23;8.80;;;1024.60;947.20;;;;;;4804876;29;20043;-84
2023/09/28 07:13:15;;;;;;;12.05;8.35;;;1049.70;947.20;;;;;;4804326;29;20053;-80
2023/09/28 07:15:44;;;;;;;9.82;7.80;;;1024.20;972.80;;;;;;4804775;29;20027;-83
2023/09/28 07:18:10;;;;;;;14.05;8.48;;;1024.20;947.20;;;;;;4796135;29;20133;-81
2023/09/28 07:20:36;;;;;;;13.45;8.77;;;973.10;998.40;;;;;;4801540;29;20049;-82
2023/09/28 07:23:05;;;;;;;16.73;8.50;;;973.10;998.40;;;;;;4804761;29;20091;-83
2023/09/28 07:25:31;;;;;;;14.43;8.05;;;947.70;1024.00;;;;;;4805455;29;20038;-81
2023/09/28 07:27:56;;;;;;;12.55;7.80;;;922.40;1100.80;;;;;;4805582;29;20493;-83
2023/09/28 07:30:22;;;;;;;11.55;8.27;;;870.70;1126.40;;;;;;4805009;29;20138;-83
2023/09/28 07:32:51;;;;;;;10.77;8.02;;;845.10;1203.20;;;;;;4804088;29;20033;-80
2023/09/28 07:35:18;;;;;;;11.82;7.38;;;845.10;1228.80;;;;;;4806517;29;20034;-81
2023/09/28 07:37:44;;;;;;;11.75;7.50;;;819.80;1228.80;;;;;;4806814;29;20038;-79
2023/09/28 07:40:12;;;;;;;13.00;7.50;;;794.30;1305.60;;;;;;4810072;29;20026;-81
2023/09/28 07:42:43;;;;;;;16.00;7.43;;;819.60;1280.00;;;;;;4804574;29;20127;-80
2023/09/28 07:45:11;;;;;;;10.35;7.10;;;793.80;1331.20;;;;;;4808303;29;20084;-79
2023/09/28 07:47:38;;;;;;;9.57;6.65;;;768.40;1331.20;;;;;;4807923;29;20478;-80
2023/09/28 07:50:08;;;;;;;10.90;6.70;;;768.50;1382.40;;;;;;4809017;29;20054;-81
2023/09/28 07:52:35;;;;;;;8.73;6.32;;;768.00;1408.00;;;;;;4806690;29;20134;-82
2023/09/28 07:55:04;;;;;;;9.77;6.30;;;743.30;1382.40;;;;;;4807696;29;20122;-81
2023/09/28 07:57:30;;;;;;;10.18;6.57;;;742.90;1433.60;;;;;;4803631;29;20027;-80
2023/09/28 07:59:56;;;;;;;11.65;7.30;;;768.20;1382.40;;;;;;4804288;29;20549;-80
2023/09/28 08:02:25;;;;;;;10.75;6.55;;;742.40;1459.20;;;;;;4804504;29;20023;-81
2023/09/28 08:04:53;;;;;;;9.77;5.50;;;717.20;1484.80;;;;;;4805431;29;20110;-81
2023/09/28 08:07:23;;;;;;;9.82;5.45;;;717.00;1459.20;;;;;;4804140;29;20027;-81
2023/09/28 08:09:49;;;;;;;10.23;5.55;;;691.90;1510.40;;;;;;4803525;29;20490;-78
2023/09/28 08:12:14;;;;;;;11.27;5.25;;;691.80;1459.20;;;;;;4807193;29;20059;-79
2023/09/28 08:14:40;;;;;;;7.88;5.95;;;716.80;1484.80;;;;;;4806885;29;20401;-83
2023/09/28 08:17:09;;;;;;;12.93;6.05;;;692.00;1484.80;;;;;;4807360;29;20038;-80
2023/09/28 08:19:36;;;;;;;11.25;6.35;;;691.50;1484.80;;;;;;4807598;29;20460;-82
2023/09/28 08:22:03;;;;;;;10.55;5.45;;;691.80;1459.20;;;;;;4807191;29;20035;-78
2023/09/28 08:24:29;;;;;;;9.05;4.97;;;691.50;1484.80;;;;;;4805755;29;20042;-83
2023/09/28 08:26:58;;;;;;;9.40;5.00;;;692.10;1484.80;;;;;;4805118;29;20046;-81
2023/09/28 08:29:23;;;;;;;9.82;4.70;;;717.30;1484.80;;;;;;4807850;29;20042;-82
2023/09/28 08:31:51;;;;;;;11.43;4.97;;;;;;;;;;4805891;29;20038;-81
2023/09/28 08:34:16;;;;;;;9.13;4.85;;;742.40;1459.20;;;;;;4803214;29;20035;-76
2023/09/28 08:36:42;;;;;;;9.02;5.45;;;717.70;1408.00;;;;;;4806807;29;20035;-79
2023/09/28 08:39:11;;;;;;;14.13;5.25;;;742.40;1459.20;;;;;;4805149;29;20084;-81
2023/09/28 08:41:54;;;;;;;6.53;4.18;;;717.60;1408.00;;;;;;4806818;29;20031;-80
2023/09/28 08:44:28;;;;;;;11.07;4.72;;;717.40;1433.60;;;;;;4808875;29;20118;-80
2023/09/28 08:47:00;;;;;;;7.07;4.40;;;717.10;1408.00;;;;;;4814152;29;20088;-80
2023/09/28 08:49:29;;;;;;;7.80;4.35;;;717.10;1459.20;;;;;;4812342;29;20176;-83
2023/09/28 08:51:55;;;;;;;8.68;4.28;;;717.00;1408.00;;;;;;4806295;29;20474;-81
2023/09/28 08:54:22;;;;;;;9.55;4.70;;;717.00;1433.60;;;;;;4801282;29;20054;-80
2023/09/28 08:56:50;;;;;;;9.88;4.70;;;717.30;1433.60;;;;;;4805132;29;20031;-80
2023/09/28 08:59:17;;;;;;;8.43;3.80;;;717.40;1382.40;;;;;;4803017;29;20042;-81
2023/09/28 09:01:44;;;;;;;7.65;3.72;;;742.70;1356.80;;;;;;4805384;29;20243;-78
2023/09/28 09:04:11;;;;;;;6.85;3.55;;;717.50;1408.00;;;;;;4802233;29;20122;-82
2023/09/28 09:06:37;;;;;;;8.55;3.55;;;;;;;;;;4788517;29;20031;-82
2023/09/28 09:09:06;;;;;;;9.02;4.07;;;742.50;1356.80;;;;;;4787960;29;20028;-83
2023/09/28 09:11:33;;;;;;;9.45;3.83;;;742.50;1382.40;;;;;;4799965;29;20035;-80
2023/09/28 09:14:00;;;;;;;8.23;4.20;;;717.70;1331.20;;;;;;4805632;29;20453;-83
2023/09/28 09:16:32;;;;;;;8.00;3.38;;;743.20;1331.20;;;;;;4801019;29;20031;-80
2023/09/28 09:18:59;;;;;;;5.50;3.60;;;;;;;;;;4793810;29;20067;-82
2023/09/28 09:21:25;;;;;;;8.20;3.30;;;;;;;;;;4787444;29;20026;-83
2023/09/28 09:24:05;;;;;;;6.60;3.45;;;743.20;1254.40;;;;;;4797351;29;20048;-81
2023/09/28 09:26:42;;;;;;;6.35;3.30;;;;;;;;;;4803260;29;20039;-82
2023/09/28 09:29:11;;;;;;;7.22;3.10;;;742.80;1203.20;;;;;;4806031;29;20367;-82
2023/09/28 09:31:42;;;;;;;6.15;3.10;;;742.40;1254.40;;;;;;4802851;29;20039;-82
2023/09/28 09:34:19;;;;;;;5.80;3.00;;;743.10;1228.80;;;;;;4806919;29;20489;-83
2023/09/28 09:36:56;;;;;;;6.80;3.40;;;768.10;1203.20;;;;;;4805488;29;20435;-81
2023/09/28 09:39:28;;;;;;;7.25;3.63;;;768.10;1228.80;;;;;;4811593;29;20065;-80
2023/09/28 09:41:55;;;;;;;8.23;3.58;;;768.30;1152.00;;;;;;4800424;29;20074;-80
2023/09/28 09:44:25;;;;;;;6.05;3.58;;;743.00;1177.60;;;;;;4795793;29;20033;-78
2023/09/28 09:46:55;;;;;;;6.22;3.60;;;743.10;1203.20;;;;;;4804343;29;20035;-78
2023/09/28 09:49:24;;;;;;;5.85;3.33;;;768.20;1177.60;;;;;;4808255;29;20055;-79
2023/09/28 09:51:51;;;;;;;7.15;3.85;;;768.40;1152.00;;;;;;4805228;29;20042;-81
2023/09/28 09:54:19;;;;;;;7.13;3.08;;;768.00;1126.40;;;;;;4806968;29;20042;-80
2023/09/28 09:56:49;;;;;;;6.07;3.45;;;768.10;1152.00;;;;;;4798489;29;20493;-83
2023/09/28 09:59:20;;;;;;;7.30;3.20;;;742.90;1152.00;;;;;;4804677;29;20039;-80
2023/09/28 10:01:53;;;;;;;9.95;3.67;;;742.80;1152.00;;;;;;4805077;29;20047;-80
2023/09/28 10:04:23;;;;;;;5.93;2.85;;;742.80;1152.00;;;;;;4806209;29;20495;-82
2023/09/28 10:06:56;;;;;;;5.72;3.50;;;742.90;1152.00;;;;;;4804654;29;20177;-80
2023/09/28 10:09:22;;;;;;;10.15;3.00;;;768.50;1126.40;;;;;;4805277;29;20039;-81
2023/09/28 10:11:52;;;;;;;10.77;3.38;;;768.80;1100.80;;;;;;4799772;29;20122;-83
2023/09/28 10:14:21;;;;;;;8.68;3.60;;;768.50;1228.80;;;;;;4799689;29;20437;-83
2023/09/28 10:16:53;;;;;;;7.07;3.40;;;768.00;1100.80;;;;;;4801168;29;20482;-80
2023/09/28 10:19:19;;;;;;;7.72;3.40;;;;;;;;;;4797037;29;20030;-81
2023/09/28 10:21:46;;;;;;;10.55;3.15;;;793.90;1177.60;;;;;;4803898;29;20042;-81
2023/09/28 10:24:14;;;;;;;8.63;3.13;;;768.30;1075.20;;;;;;4803493;29;20107;-81
2023/09/28 10:26:48;;;;;;;6.35;3.20;;;768.10;1075.20;;;;;;4800826;29;20038;-83
2023/09/28 10:29:23;;;;;;;7.25;3.90;;;768.50;1100.80;;;;;;4808666;29;20047;-82
2023/09/28 10:31:53;;;;;;;5.60;3.88;;;768.10;1075.20;;;;;;4807775;29;20406;-81
2023/09/28 10:34:20;;;;;;;9.75;3.30;;;743.10;1100.80;;;;;;4806550;29;20492;-80
2023/09/28 10:37:06;;;;;;;5.97;3.90;;;742.80;1100.80;;;;;;4806481;29;20046;-84
2023/09/28 10:39:32;;;;;;;8.10;3.83;;;768.50;1126.40;;;;;;4806392;29;20065;-84
2023/09/28 10:42:11;;;;;;;6.10;3.75;;;768.30;1100.80;;;;;;4804032;29;20070;-83
2023/09/28 10:44:50;;;;;;;7.22;3.55;;;743.00;1100.80;;;;;;4805538;29;20035;-84
2023/09/28 10:47:16;;;;;;;11.80;4.30;;;743.00;1075.20;;;;;;4806242;29;20114;-83
2023/09/28 10:49:42;;;;;;;7.38;3.30;;;743.10;1126.40;;;;;;4804700;29;20941;-82
2023/09/28 10:52:11;;;;;;;9.30;3.50;;;768.10;1075.20;;;;;;4817044;29;20039;-85
2023/09/28 10:54:42;;;;;;;5.78;3.53;;;743.20;1100.80;;;;;;4808770;29;20129;-81
2023/09/28 10:57:09;;;;;;;6.90;3.50;;;743.00;1100.80;;;;;;4804371;29;20031;-83
2023/09/28 10:59:41;;;;;;;5.30;3.58;;;743.00;1075.20;;;;;;4798891;29;20556;-82
2023/09/28 11:02:09;;;;;;;6.07;3.30;;;743.10;1100.80;;;;;;4790114;29;20094;-80
2023/09/28 11:04:38;;;;;;;8.05;3.88;;;743.10;1100.80;;;;;;4809087;29;20049;-81
2023/09/28 11:07:06;;;;;;;6.07;3.50;;;742.90;1075.20;;;;;;4805554;29;20455;-83
2023/09/28 11:09:31;;;;;;;7.82;3.17;;;742.90;1100.80;;;;;;4804184;29;20087;-83
2023/09/28 11:11:58;;;;;;;6.82;3.45;;;742.90;1100.80;;;;;;4807664;29;20038;-82
2023/09/28 11:14:27;;;;;;;6.15;3.50;;;743.00;1075.20;;;;;;4806382;29;20046;-83
2023/09/28 11:16:53;;;;;;;6.72;3.60;;;743.00;1100.80;;;;;;4808838;29;20046;-81
2023/09/28 11:19:22;;;;;;;5.40;3.20;;;743.20;1075.20;;;;;;4806024;29;20482;-81
2023/09/28 11:21:49;;;;;;;7.38;3.63;;;768.00;1075.20;;;;;;4805692;29;20030;-84
2023/09/28 11:24:15;;;;;;;6.75;3.58;;;768.20;1075.20;;;;;;4816572;29;20139;-82
2023/09/28 11:26:42;;;;;;;7.00;3.50;;;743.30;1075.20;;;;;;4811702;29;20107;-80
2023/09/28 11:29:09;;;;;;;6.80;3.63;;;743.20;1075.20;;;;;;4818450;29;20037;-82
2023/09/28 11:31:35;;;;;;;7.15;3.42;;;742.90;1075.20;;;;;;4818489;29;20038;-82
2023/09/28 11:34:05;;;;;;;7.50;3.75;;;742.90;1075.20;;;;;;4809038;29;20050;-80
2023/09/28 11:36:32;;;;;;;7.40;3.67;;;743.30;1100.80;;;;;;4800631;29;20065;-80
2023/09/28 11:38:59;;;;;;;11.60;4.13;;;743.30;1049.60;;;;;;4811926;29;20041;-81
2023/09/28 11:41:26;;;;;;;7.88;4.25;;;743.20;1049.60;;;;;;4804334;29;20050;-82
2023/09/28 11:43:53;;;;;;;7.63;3.72;;;743.30;1075.20;;;;;;4810991;29;20039;-82
2023/09/28 11:46:28;;;;;;;7.75;3.72;;;768.00;1100.80;;;;;;4809786;29;20481;-81
2023/09/28 11:49:11;;;;;;;5.70;3.70;;;768.10;1075.20;;;;;;4808359;29;20115;-82
2023/09/28 11:51:38;;;;;;;6.97;3.80;;;793.60;1100.80;;;;;;4815136;29;20039;-80
2023/09/28 11:54:17;;;;;;;7.80;3.92;;;793.60;1075.20;;;;;;4812920;29;20140;-81
2023/09/28 11:56:46;;;;;;;6.75;3.88;;;768.40;1075.20;;;;;;4807923;29;20050;-81
2023/09/28 11:59:15;;;;;;;8.52;3.53;;;768.30;1075.20;;;;;;4809414;29;20031;-81
2023/09/28 12:01:53;;;;;;;6.50;3.20;;;768.50;1049.60;;;;;;4803621;29;20042;-81
2023/09/28 12:04:22;;;;;;;7.10;3.50;;;768.40;1049.60;;;;;;4808846;29;20038;-82
2023/09/28 12:06:48;;;;;;;7.25;3.42;;;768.40;1049.60;;;;;;4807882;29;20039;-81
2023/09/28 12:09:18;;;;;;;8.23;3.80;;;768.00;1075.20;;;;;;4804590;29;20043;-81
2023/09/28 12:11:46;;;;;;;7.05;3.50;;;768.00;1100.80;;;;;;4799749;29;20141;-83
2023/09/28 12:14:12;;;;;;;6.47;3.70;;;768.60;1100.80;;;;;;4796659;29;20131;-83
2023/09/28 12:16:38;;;;;;;6.80;3.60;;;768.80;1075.20;;;;;;4798131;29;20060;-83
2023/09/28 12:19:04;;;;;;;7.32;3.83;;;768.50;1049.60;;;;;;4807381;29;20027;-83
2023/09/28 12:21:30;;;;;;;7.25;3.70;;;793.60;1100.80;;;;;;4806842;29;20063;-79